sensor_id;sensor_type;location;lat;lon;timestamp;temperature;humidity
72202;SHT30;60105;54.956;73.412;2023-03-07T00:02:50;-5.07;74.00
72202;SHT30;60105;54.956;73.412;2023-03-07T00:06:06;-5.02;73.74
72202;SHT30;60105;54.956;73.412;2023-03-07T00:09:18;-5.12;74.11
72202;SHT30;60105;54.956;73.412;2023-03-07T00:12:24;-5.19;73.93
72202;SHT30;60105;54.956;73.412;2023-03-07T00:15:25;-5.19;74.06
72202;SHT30;60105;54.956;73.412;2023-03-07T00:18:26;-5.19;73.82
72202;SHT30;60105;54.956;73.412;2023-03-07T00:21:28;-5.24;73.82
72202;SHT30;60105;54.956;73.412;2023-03-07T00:24:31;-5.38;74.18
72202;SHT30;60105;54.956;73.412;2023-03-07T00:27:47;-5.40;73.95
72202;SHT30;60105;54.956;73.412;2023-03-07T00:30:48;-5.42;73.88
72202;SHT30;60105;54.956;73.412;2023-03-07T00:33:50;-5.42;73.81
72202;SHT30;60105;54.956;73.412;2023-03-07T00:36:51;-5.51;74.16
72202;SHT30;60105;54.956;73.412;2023-03-07T00:39:53;-5.52;73.93
72202;SHT30;60105;54.956;73.412;2023-03-07T00:42:54;-5.61;74.20
72202;SHT30;60105;54.956;73.412;2023-03-07T00:45:56;-5.62;74.62
72202;SHT30;60105;54.956;73.412;2023-03-07T00:48:57;-5.64;74.59
72202;SHT30;60105;54.956;73.412;2023-03-07T00:51:58;-5.62;74.38
72202;SHT30;60105;54.956;73.412;2023-03-07T00:55:01;-5.61;74.10
72202;SHT30;60105;54.956;73.412;2023-03-07T00:58:04;-5.67;74.01
72202;SHT30;60105;54.956;73.412;2023-03-07T01:01:06;-5.71;74.58
72202;SHT30;60105;54.956;73.412;2023-03-07T01:04:13;-5.71;74.66
72202;SHT30;60105;54.956;73.412;2023-03-07T01:07:47;-5.68;74.79
72202;SHT30;60105;54.956;73.412;2023-03-07T01:10:49;-5.68;74.65
72202;SHT30;60105;54.956;73.412;2023-03-07T01:13:54;-5.62;74.57
72202;SHT30;60105;54.956;73.412;2023-03-07T01:17:01;-5.68;74.52
72202;SHT30;60105;54.956;73.412;2023-03-07T01:20:03;-5.62;74.24
72202;SHT30;60105;54.956;73.412;2023-03-07T01:23:13;-5.68;74.41
72202;SHT30;60105;54.956;73.412;2023-03-07T01:26:20;-5.72;74.25
72202;SHT30;60105;54.956;73.412;2023-03-07T01:29:22;-5.74;74.56
72202;SHT30;60105;54.956;73.412;2023-03-07T01:32:56;-5.71;74.57
72202;SHT30;60105;54.956;73.412;2023-03-07T01:35:58;-5.68;74.28
72202;SHT30;60105;54.956;73.412;2023-03-07T01:39:02;-5.68;74.16
72202;SHT30;60105;54.956;73.412;2023-03-07T01:42:16;-5.67;74.07
72202;SHT30;60105;54.956;73.412;2023-03-07T01:48:33;-5.78;74.04
72202;SHT30;60105;54.956;73.412;2023-03-07T01:51:48;-5.93;74.57
72202;SHT30;60105;54.956;73.412;2023-03-07T01:54:55;-5.96;74.61
72202;SHT30;60105;54.956;73.412;2023-03-07T01:58:08;-5.93;74.26
72202;SHT30;60105;54.956;73.412;2023-03-07T02:01:12;-5.93;74.06
72202;SHT30;60105;54.956;73.412;2023-03-07T02:04:18;-5.99;73.45
72202;SHT30;60105;54.956;73.412;2023-03-07T02:07:48;-6.05;73.60
72202;SHT30;60105;54.956;73.412;2023-03-07T02:10:52;-6.19;74.15
72202;SHT30;60105;54.956;73.412;2023-03-07T02:14:00;-6.30;74.47
72202;SHT30;60105;54.956;73.412;2023-03-07T02:17:47;-6.37;74.61
72202;SHT30;60105;54.956;73.412;2023-03-07T02:21:00;-6.37;75.13
72202;SHT30;60105;54.956;73.412;2023-03-07T02:27:49;-6.24;74.50
72202;SHT30;60105;54.956;73.412;2023-03-07T02:31:04;-6.24;74.09
72202;SHT30;60105;54.956;73.412;2023-03-07T02:34:28;-6.24;74.03
72202;SHT30;60105;54.956;73.412;2023-03-07T02:38:01;-6.30;74.09
72202;SHT30;60105;54.956;73.412;2023-03-07T02:41:11;-6.29;74.15
72202;SHT30;60105;54.956;73.412;2023-03-07T02:44:12;-6.26;74.06
72202;SHT30;60105;54.956;73.412;2023-03-07T02:47:47;-6.17;73.85
72202;SHT30;60105;54.956;73.412;2023-03-07T02:50:51;-6.06;73.26
72202;SHT30;60105;54.956;73.412;2023-03-07T02:53:53;-6.07;73.04
72202;SHT30;60105;54.956;73.412;2023-03-07T02:56:54;-6.13;72.66
72202;SHT30;60105;54.956;73.412;2023-03-07T02:59:56;-6.10;73.09
72202;SHT30;60105;54.956;73.412;2023-03-07T03:02:57;-6.09;73.00
72202;SHT30;60105;54.956;73.412;2023-03-07T03:05:58;-6.00;72.84
72202;SHT30;60105;54.956;73.412;2023-03-07T03:08:59;-5.99;72.70
72202;SHT30;60105;54.956;73.412;2023-03-07T03:12:01;-5.96;72.28
72202;SHT30;60105;54.956;73.412;2023-03-07T03:15:05;-5.99;72.32
72202;SHT30;60105;54.956;73.412;2023-03-07T03:18:07;-6.07;72.52
72202;SHT30;60105;54.956;73.412;2023-03-07T03:21:09;-5.99;72.92
72202;SHT30;60105;54.956;73.412;2023-03-07T03:24:11;-5.95;72.42
72202;SHT30;60105;54.956;73.412;2023-03-07T03:27:48;-5.86;72.25
72202;SHT30;60105;54.956;73.412;2023-03-07T03:30:58;-5.85;72.24
72202;SHT30;60105;54.956;73.412;2023-03-07T03:34:00;-5.86;72.10
72202;SHT30;60105;54.956;73.412;2023-03-07T03:37:47;-5.67;71.94
72202;SHT30;60105;54.956;73.412;2023-03-07T03:40:51;-5.52;71.06
72202;SHT30;60105;54.956;73.412;2023-03-07T03:43:53;-5.46;71.02
72202;SHT30;60105;54.956;73.412;2023-03-07T03:46:55;-5.28;70.54
72202;SHT30;60105;54.956;73.412;2023-03-07T03:50:03;-5.21;69.94
72202;SHT30;60105;54.956;73.412;2023-03-07T03:53:05;-5.17;69.83
72202;SHT30;60105;54.956;73.412;2023-03-07T03:56:09;-5.03;69.86
72202;SHT30;60105;54.956;73.412;2023-03-07T03:59:16;-4.88;68.95
72202;SHT30;60105;54.956;73.412;2023-03-07T04:02:47;-4.83;68.67
72202;SHT30;60105;54.956;73.412;2023-03-07T04:06:06;-4.60;68.01
72202;SHT30;60105;54.956;73.412;2023-03-07T04:09:08;-4.54;67.85
72202;SHT30;60105;54.956;73.412;2023-03-07T04:12:16;-4.40;67.56
72202;SHT30;60105;54.956;73.412;2023-03-07T04:15:17;-4.28;66.83
72202;SHT30;60105;54.956;73.412;2023-03-07T04:18:20;-4.13;66.75
72202;SHT30;60105;54.956;73.412;2023-03-07T04:21:33;-3.92;65.76
72202;SHT30;60105;54.956;73.412;2023-03-07T04:24:35;-3.83;65.39
72202;SHT30;60105;54.956;73.412;2023-03-07T04:27:47;-3.78;64.92
72202;SHT30;60105;54.956;73.412;2023-03-07T04:30:49;-3.75;65.23
72202;SHT30;60105;54.956;73.412;2023-03-07T04:33:53;-3.52;64.66
72202;SHT30;60105;54.956;73.412;2023-03-07T04:36:55;-3.50;64.41
72202;SHT30;60105;54.956;73.412;2023-03-07T04:39:56;-3.42;64.36
72202;SHT30;60105;54.956;73.412;2023-03-07T04:42:58;-3.30;64.38
72202;SHT30;60105;54.956;73.412;2023-03-07T04:45:59;-3.01;63.37
72202;SHT30;60105;54.956;73.412;2023-03-07T04:49:02;-2.89;62.74
72202;SHT30;60105;54.956;73.412;2023-03-07T04:52:47;-2.87;62.54
72202;SHT30;60105;54.956;73.412;2023-03-07T04:56:03;-2.80;62.51
72202;SHT30;60105;54.956;73.412;2023-03-07T04:59:11;-2.65;62.02
72202;SHT30;60105;54.956;73.412;2023-03-07T05:02:47;-2.53;61.54
72202;SHT30;60105;54.956;73.412;2023-03-07T05:05:51;-2.56;61.73
72202;SHT30;60105;54.956;73.412;2023-03-07T05:09:02;-2.49;61.69
72202;SHT30;60105;54.956;73.412;2023-03-07T05:12:16;-2.30;61.26
72202;SHT30;60105;54.956;73.412;2023-03-07T05:15:26;-2.18;60.87
72202;SHT30;60105;54.956;73.412;2023-03-07T05:18:33;-1.98;60.31
72202;SHT30;60105;54.956;73.412;2023-03-07T05:21:39;-1.82;59.95
72202;SHT30;60105;54.956;73.412;2023-03-07T05:24:45;-1.73;59.82
72202;SHT30;60105;54.956;73.412;2023-03-07T05:27:47;-1.67;59.32
72202;SHT30;60105;54.956;73.412;2023-03-07T05:30:59;-1.55;58.99
72202;SHT30;60105;54.956;73.412;2023-03-07T05:34:05;-1.42;58.76
72202;SHT30;60105;54.956;73.412;2023-03-07T05:37:47;-1.39;58.80
72202;SHT30;60105;54.956;73.412;2023-03-07T05:40:54;-1.24;58.57
72202;SHT30;60105;54.956;73.412;2023-03-07T05:43:55;-1.28;58.19
72202;SHT30;60105;54.956;73.412;2023-03-07T05:46:58;-1.11;57.98
72202;SHT30;60105;54.956;73.412;2023-03-07T05:49:59;-0.94;57.28
72202;SHT30;60105;54.956;73.412;2023-03-07T05:53:06;-0.84;56.68
72202;SHT30;60105;54.956;73.412;2023-03-07T05:56:13;-0.76;56.70
72202;SHT30;60105;54.956;73.412;2023-03-07T05:59:14;-0.73;56.79
72202;SHT30;60105;54.956;73.412;2023-03-07T06:02:47;-0.67;56.66
72202;SHT30;60105;54.956;73.412;2023-03-07T06:05:50;-0.59;56.74
72202;SHT30;60105;54.956;73.412;2023-03-07T06:08:51;-0.45;56.36
72202;SHT30;60105;54.956;73.412;2023-03-07T06:11:52;-0.33;56.69
72202;SHT30;60105;54.956;73.412;2023-03-07T06:14:54;-0.06;56.24
72202;SHT30;60105;54.956;73.412;2023-03-07T06:18:01;0.17;55.43
72202;SHT30;60105;54.956;73.412;2023-03-07T06:21:05;0.36;55.40
72202;SHT30;60105;54.956;73.412;2023-03-07T06:24:12;0.54;55.04
72202;SHT30;60105;54.956;73.412;2023-03-07T06:27:47;0.61;54.98
72202;SHT30;60105;54.956;73.412;2023-03-07T06:30:59;0.58;54.55
72202;SHT30;60105;54.956;73.412;2023-03-07T06:34:00;0.49;54.38
72202;SHT30;60105;54.956;73.412;2023-03-07T06:37:02;0.32;54.85
72202;SHT30;60105;54.956;73.412;2023-03-07T06:40:04;0.30;55.14
72202;SHT30;60105;54.956;73.412;2023-03-07T06:43:10;0.43;54.03
72202;SHT30;60105;54.956;73.412;2023-03-07T06:46:11;0.16;54.04
72202;SHT30;60105;54.956;73.412;2023-03-07T06:49:16;0.25;54.28
72202;SHT30;60105;54.956;73.412;2023-03-07T06:52:47;0.29;54.70
72202;SHT30;60105;54.956;73.412;2023-03-07T06:55:56;0.09;54.30
72202;SHT30;60105;54.956;73.412;2023-03-07T06:58:58;0.26;55.24
72202;SHT30;60105;54.956;73.412;2023-03-07T07:02:03;0.27;54.77
72202;SHT30;60105;54.956;73.412;2023-03-07T07:05:06;0.32;54.80
72202;SHT30;60105;54.956;73.412;2023-03-07T07:08:08;0.37;54.48
72202;SHT30;60105;54.956;73.412;2023-03-07T07:11:09;0.47;54.77
72202;SHT30;60105;54.956;73.412;2023-03-07T07:14:11;0.49;53.65
72202;SHT30;60105;54.956;73.412;2023-03-07T07:17:47;0.52;54.58
72202;SHT30;60105;54.956;73.412;2023-03-07T07:20:54;0.43;53.87
72202;SHT30;60105;54.956;73.412;2023-03-07T07:23:59;0.68;55.44
72202;SHT30;60105;54.956;73.412;2023-03-07T07:27:01;0.81;53.80
72202;SHT30;60105;54.956;73.412;2023-03-07T07:30:03;0.84;54.02
72202;SHT30;60105;54.956;73.412;2023-03-07T07:33:05;0.98;54.04
72202;SHT30;60105;54.956;73.412;2023-03-07T07:36:07;0.99;53.58
72202;SHT30;60105;54.956;73.412;2023-03-07T07:39:10;1.14;53.28
72202;SHT30;60105;54.956;73.412;2023-03-07T07:42:16;1.33;53.62
72202;SHT30;60105;54.956;73.412;2023-03-07T07:45:40;1.60;53.74
72202;SHT30;60105;54.956;73.412;2023-03-07T07:48:46;1.59;52.77
72202;SHT30;60105;54.956;73.412;2023-03-07T07:51:53;1.71;52.02
72202;SHT30;60105;54.956;73.412;2023-03-07T07:54:55;1.83;52.30
72202;SHT30;60105;54.956;73.412;2023-03-07T07:57:58;2.04;51.67
72202;SHT30;60105;54.956;73.412;2023-03-07T08:01:00;2.33;52.49
72202;SHT30;60105;54.956;73.412;2023-03-07T08:04:04;2.38;50.99
72202;SHT30;60105;54.956;73.412;2023-03-07T08:07:47;2.33;51.31
72202;SHT30;60105;54.956;73.412;2023-03-07T08:10:50;2.28;52.32
72202;SHT30;60105;54.956;73.412;2023-03-07T08:13:51;2.20;52.75
72202;SHT30;60105;54.956;73.412;2023-03-07T08:16:52;2.03;52.35
72202;SHT30;60105;54.956;73.412;2023-03-07T08:19:54;2.18;52.69
72202;SHT30;60105;54.956;73.412;2023-03-07T08:22:55;2.22;52.01
72202;SHT30;60105;54.956;73.412;2023-03-07T08:26:08;2.41;51.73
72202;SHT30;60105;54.956;73.412;2023-03-07T08:29:10;2.14;51.88
72202;SHT30;60105;54.956;73.412;2023-03-07T08:32:51;2.14;53.43
72202;SHT30;60105;54.956;73.412;2023-03-07T08:35:52;2.01;53.17
72202;SHT30;60105;54.956;73.412;2023-03-07T08:38:54;1.84;53.68
72202;SHT30;60105;54.956;73.412;2023-03-07T08:42:15;1.98;53.71
72202;SHT30;60105;54.956;73.412;2023-03-07T08:45:17;1.88;53.05
72202;SHT30;60105;54.956;73.412;2023-03-07T08:48:21;1.85;53.83
72202;SHT30;60105;54.956;73.412;2023-03-07T08:51:26;1.88;53.43
72202;SHT30;60105;54.956;73.412;2023-03-07T08:54:28;1.93;53.83
72202;SHT30;60105;54.956;73.412;2023-03-07T08:57:47;2.01;52.22
72202;SHT30;60105;54.956;73.412;2023-03-07T09:00:48;1.90;53.08
72202;SHT30;60105;54.956;73.412;2023-03-07T09:03:54;1.83;53.61
72202;SHT30;60105;54.956;73.412;2023-03-07T09:07:47;1.94;53.69
72202;SHT30;60105;54.956;73.412;2023-03-07T09:10:48;2.22;53.36
72202;SHT30;60105;54.956;73.412;2023-03-07T09:13:49;2.26;52.27
72202;SHT30;60105;54.956;73.412;2023-03-07T09:16:50;2.20;52.12
72202;SHT30;60105;54.956;73.412;2023-03-07T09:19:51;2.15;52.20
72202;SHT30;60105;54.956;73.412;2023-03-07T09:22:53;1.97;52.68
72202;SHT30;60105;54.956;73.412;2023-03-07T09:26:02;1.97;53.09
72202;SHT30;60105;54.956;73.412;2023-03-07T09:29:05;2.22;52.76
72202;SHT30;60105;54.956;73.412;2023-03-07T09:32:48;1.98;53.35
72202;SHT30;60105;54.956;73.412;2023-03-07T09:35:49;1.90;53.63
72202;SHT30;60105;54.956;73.412;2023-03-07T09:38:50;1.80;54.79
72202;SHT30;60105;54.956;73.412;2023-03-07T09:45:37;1.95;53.66
72202;SHT30;60105;54.956;73.412;2023-03-07T09:49:20;2.01;52.61
72202;SHT30;60105;54.956;73.412;2023-03-07T09:52:47;1.67;53.32
72202;SHT30;60105;54.956;73.412;2023-03-07T09:55:50;1.74;53.93
72202;SHT30;60105;54.956;73.412;2023-03-07T10:06:24;1.57;54.16
72202;SHT30;60105;54.956;73.412;2023-03-07T10:09:26;1.54;53.83
72202;SHT30;60105;54.956;73.412;2023-03-07T10:19:12;1.52;54.25
72202;SHT30;60105;54.956;73.412;2023-03-07T10:23:04;1.50;54.27
72202;SHT30;60105;54.956;73.412;2023-03-07T10:29:18;1.33;55.41
72202;SHT30;60105;54.956;73.412;2023-03-07T10:32:48;1.16;55.52
72202;SHT30;60105;54.956;73.412;2023-03-07T10:36:09;1.32;55.93
72202;SHT30;60105;54.956;73.412;2023-03-07T10:39:24;1.29;55.66
72202;SHT30;60105;54.956;73.412;2023-03-07T10:42:34;0.98;56.82
72202;SHT30;60105;54.956;73.412;2023-03-07T10:45:42;1.19;57.46
72202;SHT30;60105;54.956;73.412;2023-03-07T10:48:51;1.31;55.93
72202;SHT30;60105;54.956;73.412;2023-03-07T10:52:05;1.25;57.36
72202;SHT30;60105;54.956;73.412;2023-03-07T10:55:36;1.15;57.79
72202;SHT30;60105;54.956;73.412;2023-03-07T10:58:59;1.26;57.35
72202;SHT30;60105;54.956;73.412;2023-03-07T11:02:02;0.95;57.65
72202;SHT30;60105;54.956;73.412;2023-03-07T11:05:30;0.74;57.52
72202;SHT30;60105;54.956;73.412;2023-03-07T11:08:34;0.46;58.32
72202;SHT30;60105;54.956;73.412;2023-03-07T11:11:36;0.37;59.37
72202;SHT30;60105;54.956;73.412;2023-03-07T11:14:55;0.44;60.16
72202;SHT30;60105;54.956;73.412;2023-03-07T11:18:00;0.19;59.99
72202;SHT30;60105;54.956;73.412;2023-03-07T11:24:47;0.22;60.84
72202;SHT30;60105;54.956;73.412;2023-03-07T11:27:55;0.30;59.29
72202;SHT30;60105;54.956;73.412;2023-03-07T11:31:28;0.40;60.62
72202;SHT30;60105;54.956;73.412;2023-03-07T11:35:11;0.17;61.32
72202;SHT30;60105;54.956;73.412;2023-03-07T11:38:41;0.10;61.77
72202;SHT30;60105;54.956;73.412;2023-03-07T11:41:53;0.01;61.72
72202;SHT30;60105;54.956;73.412;2023-03-07T11:44:59;-0.12;62.43
72202;SHT30;60105;54.956;73.412;2023-03-07T11:55:38;-0.28;62.67
72202;SHT30;60105;54.956;73.412;2023-03-07T12:02:00;-0.49;62.00
72202;SHT30;60105;54.956;73.412;2023-03-07T12:09:18;-0.39;62.47
72202;SHT30;60105;54.956;73.412;2023-03-07T12:12:51;-0.53;62.55
72202;SHT30;60105;54.956;73.412;2023-03-07T12:26:18;-0.59;63.42
72202;SHT30;60105;54.956;73.412;2023-03-07T12:29:38;-0.67;63.54
72202;SHT30;60105;54.956;73.412;2023-03-07T12:32:47;-0.80;64.33
72202;SHT30;60105;54.956;73.412;2023-03-07T12:36:01;-0.98;65.65
72202;SHT30;60105;54.956;73.412;2023-03-07T12:39:11;-1.04;65.73
72202;SHT30;60105;54.956;73.412;2023-03-07T12:42:39;-1.09;66.13
72202;SHT30;60105;54.956;73.412;2023-03-07T12:45:49;-1.04;66.60
72202;SHT30;60105;54.956;73.412;2023-03-07T12:59:40;-1.19;67.03
72202;SHT30;60105;54.956;73.412;2023-03-07T13:03:06;-1.12;65.96
72202;SHT30;60105;54.956;73.412;2023-03-07T13:08:21;-1.16;66.49
72202;SHT30;60105;54.956;73.412;2023-03-07T13:11:26;-1.04;66.02
72202;SHT30;60105;54.956;73.412;2023-03-07T13:14:54;-1.11;65.68
72202;SHT30;60105;54.956;73.412;2023-03-07T13:17:58;-1.09;66.10
72202;SHT30;60105;54.956;73.412;2023-03-07T13:21:12;-0.81;65.92
72202;SHT30;60105;54.956;73.412;2023-03-07T13:24:40;-0.91;65.31
72202;SHT30;60105;54.956;73.412;2023-03-07T13:31:25;-1.04;65.69
72202;SHT30;60105;54.956;73.412;2023-03-07T13:34:44;-1.07;66.23
72202;SHT30;60105;54.956;73.412;2023-03-07T13:41:45;-1.19;69.19
72202;SHT30;60105;54.956;73.412;2023-03-07T13:44:47;-1.32;70.15
72202;SHT30;60105;54.956;73.412;2023-03-07T13:47:48;-1.27;71.06
72202;SHT30;60105;54.956;73.412;2023-03-07T13:54:10;-1.51;72.57
72202;SHT30;60105;54.956;73.412;2023-03-07T13:57:18;-1.48;74.20
72202;SHT30;60105;54.956;73.412;2023-03-07T14:00:48;-1.51;73.44
72202;SHT30;60105;54.956;73.412;2023-03-07T14:04:03;-1.66;75.30
72202;SHT30;60105;54.956;73.412;2023-03-07T14:10:43;-1.59;75.98
72202;SHT30;60105;54.956;73.412;2023-03-07T14:14:15;-1.67;76.99
72202;SHT30;60105;54.956;73.412;2023-03-07T14:24:29;-1.52;77.62
72202;SHT30;60105;54.956;73.412;2023-03-07T14:27:51;-1.67;79.22
72202;SHT30;60105;54.956;73.412;2023-03-07T14:30:57;-1.59;79.50
72202;SHT30;60105;54.956;73.412;2023-03-07T14:34:35;-1.52;78.68
72202;SHT30;60105;54.956;73.412;2023-03-07T14:37:35;-1.43;78.56
72202;SHT30;60105;54.956;73.412;2023-03-07T14:50:42;-1.38;78.75
72202;SHT30;60105;54.956;73.412;2023-03-07T14:53:45;-1.31;78.93
72202;SHT30;60105;54.956;73.412;2023-03-07T14:56:48;-1.28;79.32
72202;SHT30;60105;54.956;73.412;2023-03-07T15:00:43;-1.16;79.28
72202;SHT30;60105;54.956;73.412;2023-03-07T15:03:52;-1.35;79.55
72202;SHT30;60105;54.956;73.412;2023-03-07T15:07:04;-1.34;80.12
72202;SHT30;60105;54.956;73.412;2023-03-07T15:10:44;-1.82;79.95
72202;SHT30;60105;54.956;73.412;2023-03-07T15:17:01;-1.35;81.07
72202;SHT30;60105;54.956;73.412;2023-03-07T15:20:43;-1.31;80.02
72202;SHT30;60105;54.956;73.412;2023-03-07T15:23:56;-1.34;80.55
72202;SHT30;60105;54.956;73.412;2023-03-07T15:27:03;-1.52;80.75
72202;SHT30;60105;54.956;73.412;2023-03-07T15:30:46;-1.34;82.55
72202;SHT30;60105;54.956;73.412;2023-03-07T15:34:11;-1.35;80.55
72202;SHT30;60105;54.956;73.412;2023-03-07T15:37:21;-1.32;79.92
72202;SHT30;60105;54.956;73.412;2023-03-07T15:40:42;-1.15;80.31
72202;SHT30;60105;54.956;73.412;2023-03-07T15:44:05;-1.34;80.07
72202;SHT30;60105;54.956;73.412;2023-03-07T15:47:13;-1.36;81.55
72202;SHT30;60105;54.956;73.412;2023-03-07T15:50:42;-1.51;82.07
72202;SHT30;60105;54.956;73.412;2023-03-07T15:54:03;-1.60;82.48
72202;SHT30;60105;54.956;73.412;2023-03-07T15:57:20;-1.56;81.25
72202;SHT30;60105;54.956;73.412;2023-03-07T16:00:43;-1.69;82.39
72202;SHT30;60105;54.956;73.412;2023-03-07T16:03:54;-1.67;83.37
72202;SHT30;60105;54.956;73.412;2023-03-07T16:06:56;-1.63;83.14
72202;SHT30;60105;54.956;73.412;2023-03-07T16:10:52;-1.69;82.68
72202;SHT30;60105;54.956;73.412;2023-03-07T16:13:56;-1.77;83.65
72202;SHT30;60105;54.956;73.412;2023-03-07T16:17:14;-2.10;84.37
72202;SHT30;60105;54.956;73.412;2023-03-07T16:20:42;-2.04;85.57
72202;SHT30;60105;54.956;73.412;2023-03-07T16:23:54;-1.89;83.91
72202;SHT30;60105;54.956;73.412;2023-03-07T16:26:56;-1.90;83.54
72202;SHT30;60105;54.956;73.412;2023-03-07T16:29:58;-1.94;83.61
72202;SHT30;60105;54.956;73.412;2023-03-07T16:32:59;-2.04;84.23
72202;SHT30;60105;54.956;73.412;2023-03-07T16:36:11;-2.08;84.55
72202;SHT30;60105;54.956;73.412;2023-03-07T16:39:23;-2.00;83.82
72202;SHT30;60105;54.956;73.412;2023-03-07T16:42:25;-2.25;86.41
72202;SHT30;60105;54.956;73.412;2023-03-07T16:45:31;-2.31;87.70
72202;SHT30;60105;54.956;73.412;2023-03-07T16:48:43;-2.38;87.79
72202;SHT30;60105;54.956;73.412;2023-03-07T16:51:44;-2.40;89.31
72202;SHT30;60105;54.956;73.412;2023-03-07T16:54:46;-2.51;89.62
72202;SHT30;60105;54.956;73.412;2023-03-07T16:57:52;-2.53;90.92
72202;SHT30;60105;54.956;73.412;2023-03-07T17:01:04;-2.41;91.96
72202;SHT30;60105;54.956;73.412;2023-03-07T17:04:16;-2.25;92.36
72202;SHT30;60105;54.956;73.412;2023-03-07T17:07:20;-2.20;92.02
72202;SHT30;60105;54.956;73.412;2023-03-07T17:10:42;-2.31;90.60
72202;SHT30;60105;54.956;73.412;2023-03-07T17:13:45;-2.15;91.17
72202;SHT30;60105;54.956;73.412;2023-03-07T17:16:49;-2.22;90.10
72202;SHT30;60105;54.956;73.412;2023-03-07T17:19:50;-2.31;90.20
72202;SHT30;60105;54.956;73.412;2023-03-07T17:22:52;-2.28;91.01
72202;SHT30;60105;54.956;73.412;2023-03-07T17:25:53;-2.15;91.35
72202;SHT30;60105;54.956;73.412;2023-03-07T17:29:02;-2.11;91.78
72202;SHT30;60105;54.956;73.412;2023-03-07T17:32:05;-2.22;91.50
72202;SHT30;60105;54.956;73.412;2023-03-07T17:35:42;-2.17;92.45
72202;SHT30;60105;54.956;73.412;2023-03-07T17:38:54;-2.11;92.75
72202;SHT30;60105;54.956;73.412;2023-03-07T17:42:01;-2.14;92.59
72202;SHT30;60105;54.956;73.412;2023-03-07T17:45:11;-2.13;92.50
72202;SHT30;60105;54.956;73.412;2023-03-07T17:48:14;-2.14;92.35
72202;SHT30;60105;54.956;73.412;2023-03-07T17:51:16;-2.13;92.50
72202;SHT30;60105;54.956;73.412;2023-03-07T17:54:21;-2.08;92.61
72202;SHT30;60105;54.956;73.412;2023-03-07T17:57:27;-2.03;92.70
72202;SHT30;60105;54.956;73.412;2023-03-07T18:00:41;-1.95;92.42
72202;SHT30;60105;54.956;73.412;2023-03-07T18:03:43;-1.98;92.26
72202;SHT30;60105;54.956;73.412;2023-03-07T18:06:44;-1.97;92.55
72202;SHT30;60105;54.956;73.412;2023-03-07T18:09:46;-1.95;92.51
72202;SHT30;60105;54.956;73.412;2023-03-07T18:12:51;-1.84;92.34
72202;SHT30;60105;54.956;73.412;2023-03-07T18:15:56;-1.76;92.12
72202;SHT30;60105;54.956;73.412;2023-03-07T18:19:03;-1.79;91.57
72202;SHT30;60105;54.956;73.412;2023-03-07T18:22:04;-1.86;90.93
72202;SHT30;60105;54.956;73.412;2023-03-07T18:25:42;-1.79;90.29
72202;SHT30;60105;54.956;73.412;2023-03-07T18:28:45;-1.82;89.61
72202;SHT30;60105;54.956;73.412;2023-03-07T18:31:47;-1.77;89.75
72202;SHT30;60105;54.956;73.412;2023-03-07T18:34:50;-1.93;89.56
72202;SHT30;60105;54.956;73.412;2023-03-07T18:37:52;-1.91;90.36
72202;SHT30;60105;54.956;73.412;2023-03-07T18:41:18;-1.97;90.28
72202;SHT30;60105;54.956;73.412;2023-03-07T18:44:20;-2.01;90.82
72202;SHT30;60105;54.956;73.412;2023-03-07T18:47:21;-2.07;91.45
72202;SHT30;60105;54.956;73.412;2023-03-07T18:50:42;-2.07;91.75
72202;SHT30;60105;54.956;73.412;2023-03-07T18:53:44;-2.08;91.67
72202;SHT30;60105;54.956;73.412;2023-03-07T18:56:46;-2.11;91.88
72202;SHT30;60105;54.956;73.412;2023-03-07T18:59:47;-2.10;91.84
72202;SHT30;60105;54.956;73.412;2023-03-07T19:02:54;-2.08;92.14
72202;SHT30;60105;54.956;73.412;2023-03-07T19:05:56;-2.03;92.48
72202;SHT30;60105;54.956;73.412;2023-03-07T19:09:17;-1.89;92.17
72202;SHT30;60105;54.956;73.412;2023-03-07T19:12:29;-1.91;91.22
72202;SHT30;60105;54.956;73.412;2023-03-07T19:15:30;-1.93;90.96
72202;SHT30;60105;54.956;73.412;2023-03-07T19:18:32;-2.00;91.12
72202;SHT30;60105;54.956;73.412;2023-03-07T19:21:34;-1.87;91.75
72202;SHT30;60105;54.956;73.412;2023-03-07T19:24:39;-1.84;91.01
72202;SHT30;60105;54.956;73.412;2023-03-07T19:27:41;-1.90;90.79
72202;SHT30;60105;54.956;73.412;2023-03-07T19:30:42;-1.89;90.98
72202;SHT30;60105;54.956;73.412;2023-03-07T19:33:44;-1.87;90.57
72202;SHT30;60105;54.956;73.412;2023-03-07T19:36:48;-1.87;90.08
72202;SHT30;60105;54.956;73.412;2023-03-07T19:39:56;-1.93;89.52
72202;SHT30;60105;54.956;73.412;2023-03-07T19:43:03;-1.91;89.59
72202;SHT30;60105;54.956;73.412;2023-03-07T19:46:16;-1.87;89.21
72202;SHT30;60105;54.956;73.412;2023-03-07T19:49:23;-1.87;89.03
72202;SHT30;60105;54.956;73.412;2023-03-07T19:52:26;-1.83;88.66
72202;SHT30;60105;54.956;73.412;2023-03-07T19:55:42;-1.86;87.93
72202;SHT30;60105;54.956;73.412;2023-03-07T19:58:43;-1.86;87.79
72202;SHT30;60105;54.956;73.412;2023-03-07T20:01:44;-1.87;87.44
72202;SHT30;60105;54.956;73.412;2023-03-07T20:04:49;-1.86;87.91
72202;SHT30;60105;54.956;73.412;2023-03-07T20:07:56;-1.77;87.35
72202;SHT30;60105;54.956;73.412;2023-03-07T20:11:09;-1.70;86.97
72202;SHT30;60105;54.956;73.412;2023-03-07T20:14:11;-1.64;86.39
72202;SHT30;60105;54.956;73.412;2023-03-07T20:17:22;-1.59;86.19
72202;SHT30;60105;54.956;73.412;2023-03-07T20:20:42;-1.55;85.66
72202;SHT30;60105;54.956;73.412;2023-03-07T20:23:49;-1.49;85.31
72202;SHT30;60105;54.956;73.412;2023-03-07T20:26:52;-1.49;84.45
72202;SHT30;60105;54.956;73.412;2023-03-07T20:30:42;-1.53;84.75
72202;SHT30;60105;54.956;73.412;2023-03-07T20:33:45;-1.52;84.17
72202;SHT30;60105;54.956;73.412;2023-03-07T20:36:46;-1.52;84.19
72202;SHT30;60105;54.956;73.412;2023-03-07T20:39:47;-1.63;84.48
72202;SHT30;60105;54.956;73.412;2023-03-07T20:42:49;-1.58;84.82
72202;SHT30;60105;54.956;73.412;2023-03-07T20:45:51;-1.70;84.69
72202;SHT30;60105;54.956;73.412;2023-03-07T20:49:02;-1.64;85.69
72202;SHT30;60105;54.956;73.412;2023-03-07T20:52:04;-1.60;85.18
72202;SHT30;60105;54.956;73.412;2023-03-07T20:55:42;-1.48;85.12
72202;SHT30;60105;54.956;73.412;2023-03-07T20:58:44;-1.36;84.83
72202;SHT30;60105;54.956;73.412;2023-03-07T21:01:51;-1.38;85.07
72202;SHT30;60105;54.956;73.412;2023-03-07T21:04:52;-1.41;85.33
72202;SHT30;60105;54.956;73.412;2023-03-07T21:07:53;-1.31;84.78
72202;SHT30;60105;54.956;73.412;2023-03-07T21:14:13;-1.45;85.17
72202;SHT30;60105;54.956;73.412;2023-03-07T21:17:15;-1.53;84.83
72202;SHT30;60105;54.956;73.412;2023-03-07T21:20:42;-1.51;85.06
72202;SHT30;60105;54.956;73.412;2023-03-07T21:23:44;-1.46;84.62
72202;SHT30;60105;54.956;73.412;2023-03-07T21:26:50;-1.42;83.79
72202;SHT30;60105;54.956;73.412;2023-03-07T21:29:53;-1.41;83.37
72202;SHT30;60105;54.956;73.412;2023-03-07T21:32:55;-1.52;83.38
72202;SHT30;60105;54.956;73.412;2023-03-07T21:36:02;-1.53;83.81